createdAt,value
2018-07-27T00:01:48.688Z,73.86
2018-07-27T00:04:19.425Z,73.91
2018-07-27T00:06:50.825Z,74.11
2018-07-27T00:09:21.502Z,74.50
2018-07-27T00:11:51.542Z,74.85
2018-07-27T00:14:21.603Z,75.04
2018-07-27T00:16:52.123Z,75.01
2018-07-27T00:19:22.827Z,74.79
2018-07-27T00:21:53.323Z,74.92
2018-07-27T00:24:24.233Z,75.31
2018-07-27T00:26:56.407Z,75.41
2018-07-27T00:29:27.162Z,76.52
2018-07-27T00:31:57.639Z,76.33
2018-07-27T00:34:28.301Z,77.16
2018-07-27T00:36:58.757Z,77.38
2018-07-27T00:39:29.280Z,77.71
2018-07-27T00:41:59.929Z,78.29
2018-07-27T00:44:31.061Z,78.39
2018-07-27T00:47:02.245Z,79.51
2018-07-27T00:49:33.025Z,79.77
2018-07-27T00:52:03.646Z,80.37
2018-07-27T00:54:34.114Z,80.38
2018-07-27T00:57:04.856Z,81.06
2018-07-27T00:59:35.521Z,81.63
2018-07-27T01:02:06.262Z,82.13
2018-07-27T01:04:36.935Z,81.78
2018-07-27T01:07:08.136Z,82.14
2018-07-27T01:09:38.201Z,82.58
2018-07-27T01:12:08.947Z,82.54
2018-07-27T01:14:39.564Z,82.96
2018-07-27T01:17:11.165Z,83.10
2018-07-27T01:19:41.855Z,83.01
2018-07-27T01:22:12.496Z,83.09
2018-07-27T01:24:42.986Z,80.83
2018-07-27T01:27:13.490Z,80.02
2018-07-27T01:29:44.239Z,78.98
2018-07-27T01:32:14.750Z,78.77
2018-07-27T01:34:45.740Z,79.32
2018-07-27T01:37:16.959Z,81.16
2018-07-27T01:39:47.389Z,82.37
2018-07-27T01:42:18.073Z,83.51
2018-07-27T01:44:48.078Z,84.02
2018-07-27T01:47:18.599Z,83.99
2018-07-27T01:49:49.099Z,85.17
2018-07-27T01:52:19.928Z,86.43
2018-07-27T01:54:50.553Z,86.82
2018-07-27T01:57:21.119Z,86.46
2018-07-27T01:59:51.546Z,86.98
2018-07-27T02:02:22.157Z,85.03
2018-07-27T02:04:53.157Z,82.62
2018-07-27T02:07:25.279Z,82.22
2018-07-27T02:09:55.999Z,82.18
2018-07-27T02:12:26.590Z,84.00
2018-07-27T02:14:57.163Z,83.97
2018-07-27T02:17:27.660Z,84.59
2018-07-27T02:19:58.246Z,85.09
2018-07-27T02:22:28.697Z,85.25
2018-07-27T02:24:58.662Z,84.67
2018-07-27T02:27:29.231Z,84.90
2018-07-27T02:29:59.822Z,85.27
2018-07-27T02:32:30.547Z,85.20
2018-07-27T02:35:02.302Z,85.67
2018-07-27T02:37:32.874Z,86.14
2018-07-27T02:40:03.905Z,86.04
2018-07-27T02:42:34.480Z,86.20
2018-07-27T02:45:05.181Z,86.21
2018-07-27T02:47:35.771Z,86.06
2018-07-27T02:50:06.877Z,85.23
2018-07-27T02:52:37.360Z,84.87
2018-07-27T02:55:07.858Z,84.64
2018-07-27T02:57:38.372Z,84.34
2018-07-27T03:00:10.049Z,84.03
2018-07-27T03:02:41.251Z,84.19
2018-07-27T03:05:11.726Z,84.93
2018-07-27T03:07:42.296Z,84.85
2018-07-27T03:10:12.694Z,85.25
2018-07-27T03:12:43.319Z,84.59
2018-07-27T03:15:13.910Z,84.94
2018-07-27T03:17:44.378Z,85.08
2018-07-27T03:20:15.260Z,84.74
2018-07-27T03:22:45.820Z,84.24
2018-07-27T03:25:16.261Z,84.20
2018-07-27T03:27:47.360Z,84.90
2018-07-27T03:30:18.684Z,85.01
2018-07-27T03:32:49.269Z,85.21
2018-07-27T03:35:20.100Z,85.40
2018-07-27T03:37:50.743Z,85.97
2018-07-27T03:40:21.196Z,86.43
2018-07-27T03:42:51.788Z,86.73
2018-07-27T03:45:22.335Z,87.53
2018-07-27T03:47:54.164Z,87.13
2018-07-27T03:50:25.524Z,87.56
2018-07-27T03:52:56.056Z,87.48
2018-07-27T03:55:26.671Z,87.00
2018-07-27T03:57:57.925Z,87.04
2018-07-27T04:00:28.500Z,86.68
2018-07-27T04:02:59.162Z,86.70
2018-07-27T04:05:30.037Z,86.44
2018-07-27T04:08:00.617Z,85.79
2018-07-27T04:10:31.079Z,85.64
2018-07-27T04:13:01.836Z,85.38
2018-07-27T04:15:33.877Z,84.91
2018-07-27T04:18:04.439Z,84.13
2018-07-27T04:20:34.991Z,84.65
2018-07-27T04:23:06.178Z,84.61
2018-07-27T04:25:36.860Z,85.14
2018-07-27T04:28:07.722Z,83.68
2018-07-27T04:30:39.011Z,82.90
2018-07-27T04:33:09.658Z,81.33
2018-07-27T04:35:40.287Z,79.52
2018-07-27T04:38:10.698Z,79.78
2018-07-27T04:40:41.631Z,78.29
2018-07-27T04:43:12.812Z,77.25
2018-07-27T04:45:43.419Z,79.93
2018-07-27T04:48:14.127Z,80.52
2018-07-27T04:50:44.715Z,83.41
2018-07-27T04:53:15.401Z,83.11
2018-07-27T04:55:45.992Z,82.22
2018-07-27T04:58:16.544Z,80.63
2018-07-27T05:00:48.318Z,81.02
2018-07-27T05:03:19.542Z,80.53
2018-07-27T05:05:49.968Z,79.94
2018-07-27T05:08:21.530Z,79.58
2018-07-27T05:10:51.953Z,79.18
2018-07-27T05:13:22.586Z,78.71
2018-07-27T05:15:53.168Z,78.58
2018-07-27T05:18:24.006Z,77.83
2018-07-27T05:20:56.119Z,77.60
2018-07-27T05:23:28.027Z,77.38
2018-07-27T05:25:59.613Z,76.95
2018-07-27T05:28:31.163Z,76.55
2018-07-27T05:31:02.658Z,75.95
2018-07-27T05:33:33.420Z,75.21
2018-07-27T05:36:04.530Z,74.64
2018-07-27T05:38:35.245Z,74.17
2018-07-27T05:41:06.330Z,73.72
2018-07-27T05:43:36.992Z,72.87
2018-07-27T05:46:08.591Z,72.29
2018-07-27T05:48:40.095Z,72.50
2018-07-27T05:51:11.133Z,71.93
2018-07-27T05:53:43.434Z,71.47
2018-07-27T05:56:14.811Z,71.12
2018-07-27T05:58:47.151Z,71.15
2018-07-27T06:01:17.883Z,71.06
2018-07-27T06:03:48.828Z,70.78
2018-07-27T06:06:18.965Z,71.40
2018-07-27T06:08:50.608Z,71.12
2018-07-27T06:11:22.059Z,70.26
2018-07-27T06:13:52.817Z,70.12
2018-07-27T06:16:23.633Z,70.14
2018-07-27T06:18:55.051Z,70.08
2018-07-27T06:21:25.928Z,68.65
2018-07-27T06:23:56.628Z,66.10
2018-07-27T06:26:27.769Z,61.81
2018-07-27T06:28:58.091Z,59.06
2018-07-27T06:31:29.448Z,55.41
2018-07-27T06:34:00.189Z,53.12
2018-07-27T06:36:31.069Z,51.54
2018-07-27T06:39:01.722Z,49.69
2018-07-27T06:41:32.945Z,50.02
2018-07-27T06:44:04.764Z,50.46
2018-07-27T06:46:35.526Z,49.29
2018-07-27T06:49:06.249Z,48.87
2018-07-27T06:51:37.103Z,47.79
2018-07-27T06:54:07.835Z,47.07
2018-07-27T06:56:38.677Z,46.88
2018-07-27T06:59:09.447Z,45.80
2018-07-27T07:01:40.267Z,46.23
2018-07-27T07:04:11.693Z,45.65
2018-07-27T07:06:43.120Z,44.81
2018-07-27T07:09:14.000Z,43.94
2018-07-27T07:11:44.713Z,42.98
2018-07-27T07:14:16.882Z,41.98
2018-07-27T07:16:49.305Z,41.77
2018-07-27T07:19:20.122Z,42.79
2018-07-27T07:21:50.868Z,41.54
2018-07-27T07:24:22.605Z,42.23
2018-07-27T07:26:54.796Z,42.09
2018-07-27T07:29:26.296Z,41.02
2018-07-27T07:31:57.420Z,41.10
2018-07-27T07:34:28.229Z,38.95
2018-07-27T07:36:59.117Z,37.49
2018-07-27T07:39:30.058Z,36.70
2018-07-27T07:42:00.965Z,35.53
2018-07-27T07:44:32.015Z,36.69
2018-07-27T07:47:04.816Z,38.11
2018-07-27T07:49:35.473Z,38.92
2018-07-27T07:52:06.383Z,37.37
2018-07-27T07:54:37.050Z,34.85
2018-07-27T07:57:07.333Z,34.53
2018-07-27T07:59:38.837Z,34.13
2018-07-27T08:02:09.969Z,32.73
2018-07-27T08:04:41.563Z,32.46
2018-07-27T08:07:12.452Z,31.98
2018-07-27T08:09:43.135Z,31.89
2018-07-27T08:12:13.844Z,31.71
2018-07-27T08:14:43.947Z,30.85
2018-07-27T08:17:14.660Z,31.11
2018-07-27T08:19:45.453Z,28.85
2018-07-27T08:22:16.594Z,29.01
2018-07-27T08:24:48.428Z,28.34
2018-07-27T08:27:19.232Z,28.82
2018-07-27T08:29:50.347Z,28.70
2018-07-27T08:32:20.646Z,27.71
2018-07-27T08:34:52.916Z,26.92
2018-07-27T08:37:24.768Z,27.47
2018-07-27T08:39:55.469Z,27.00
2018-07-27T08:42:27.031Z,27.22
2018-07-27T08:44:59.261Z,26.79
2018-07-27T08:47:30.433Z,26.56
2018-07-27T08:50:00.772Z,25.43
2018-07-27T08:52:31.826Z,23.93
2018-07-27T08:55:02.785Z,24.49
2018-07-27T08:57:34.402Z,24.98
2018-07-27T09:00:07.209Z,24.31
2018-07-27T09:02:38.338Z,23.62
2018-07-27T09:05:09.641Z,23.06
2018-07-27T09:07:40.654Z,22.00
2018-07-27T09:10:11.465Z,21.55
2018-07-27T09:12:42.034Z,21.19
2018-07-27T09:15:13.387Z,20.74
2018-07-27T09:17:44.275Z,20.59
2018-07-27T09:20:16.246Z,22.42
2018-07-27T09:22:47.132Z,21.59
2018-07-27T09:25:18.673Z,20.86
2018-07-27T09:27:49.327Z,22.37
2018-07-27T09:30:19.532Z,21.46
2018-07-27T09:32:50.368Z,21.46
2018-07-27T09:35:21.126Z,22.68
2018-07-27T09:37:52.727Z,22.95
2018-07-27T09:40:25.285Z,23.54
2018-07-27T09:42:56.229Z,22.55
2018-07-27T09:45:27.030Z,21.62
2018-07-27T09:47:57.959Z,21.59
2018-07-27T09:50:28.777Z,20.98
2018-07-27T09:52:59.099Z,20.66
2018-07-27T09:55:30.051Z,20.50
2018-07-27T09:58:02.200Z,19.89
2018-07-27T10:00:38.753Z,19.50
2018-07-27T10:03:11.629Z,18.52
2018-07-27T10:05:42.787Z,18.32
2018-07-27T10:08:15.003Z,18.37
2018-07-27T10:10:46.315Z,18.93
2018-07-27T10:13:20.169Z,20.04
2018-07-27T10:15:51.064Z,19.77
2018-07-27T10:18:22.181Z,19.66
2018-07-27T10:20:53.420Z,19.77
2018-07-27T10:23:25.262Z,18.71
2018-07-27T10:25:57.166Z,18.88
2018-07-27T10:28:28.796Z,18.86
2018-07-27T10:30:59.839Z,18.39
2018-07-27T10:33:31.125Z,18.88
2018-07-27T10:36:01.865Z,18.52
2018-07-27T10:38:33.272Z,17.73
2018-07-27T10:41:04.010Z,17.26
2018-07-27T10:43:34.715Z,17.40
2018-07-27T10:46:05.970Z,16.85
2018-07-27T10:48:37.765Z,17.31
2018-07-27T10:51:08.898Z,16.79
2018-07-27T10:53:40.237Z,16.17
2018-07-27T10:56:11.624Z,16.76
2018-07-27T10:58:42.605Z,16.66
2018-07-27T11:01:13.802Z,16.65
2018-07-27T11:03:44.602Z,16.54
2018-07-27T11:06:16.538Z,16.73
2018-07-27T11:08:48.196Z,14.89
2018-07-27T11:11:18.912Z,15.04
2018-07-27T11:13:49.707Z,15.11
2018-07-27T11:16:20.487Z,14.91
2018-07-27T11:18:50.584Z,15.69
2018-07-27T11:21:21.251Z,15.11
2018-07-27T11:23:52.046Z,15.21
2018-07-27T11:26:23.896Z,14.67
2018-07-27T11:28:54.992Z,15.76
2018-07-27T11:31:26.694Z,14.84
2018-07-27T11:33:57.452Z,15.01
2018-07-27T11:36:28.290Z,14.91
2018-07-27T11:38:59.008Z,15.08
2018-07-27T11:41:29.725Z,15.53
2018-07-27T11:44:01.503Z,14.83
2018-07-27T11:46:33.100Z,15.82
2018-07-27T11:49:04.252Z,15.72
2018-07-27T11:51:34.954Z,15.39
2018-07-27T11:54:05.888Z,14.79
2018-07-27T11:56:36.102Z,15.05
2018-07-27T11:59:06.808Z,14.52
2018-07-27T12:01:37.631Z,15.28
2018-07-27T12:04:09.156Z,13.88
2018-07-27T12:06:41.402Z,14.23
2018-07-27T12:09:12.987Z,14.64
2018-07-27T12:11:43.935Z,13.78
2018-07-27T12:14:15.480Z,13.43
2018-07-27T12:16:46.392Z,14.58
2018-07-27T12:19:17.445Z,14.08
2018-07-27T12:21:48.618Z,14.23
2018-07-27T12:24:21.744Z,13.92
2018-07-27T12:26:53.141Z,12.79
2018-07-27T12:29:25.092Z,13.99
2018-07-27T12:31:55.949Z,13.62
2018-07-27T12:34:26.786Z,12.83
2018-07-27T12:36:57.824Z,13.14
2018-07-27T12:39:28.588Z,14.22
2018-07-27T12:42:00.418Z,14.16
2018-07-27T12:44:32.033Z,14.42
2018-07-27T12:47:02.920Z,14.03
2018-07-27T12:49:33.973Z,13.80
2018-07-27T12:52:05.360Z,12.57
2018-07-27T12:54:37.001Z,13.04
2018-07-27T12:57:09.468Z,13.58
2018-07-27T12:59:41.041Z,12.92
2018-07-27T13:02:12.643Z,12.35
2018-07-27T13:04:43.853Z,12.72
2018-07-27T13:07:14.833Z,11.72
2018-07-27T13:09:45.235Z,12.84
2018-07-27T13:12:16.187Z,13.55
2018-07-27T13:14:47.765Z,14.15
2018-07-27T13:17:18.614Z,13.55
2018-07-27T13:19:50.234Z,13.32
2018-07-27T13:22:21.852Z,12.68
2018-07-27T13:27:26.325Z,13.72
2018-07-27T13:29:57.154Z,13.40
2018-07-27T13:32:28.235Z,13.86
2018-07-27T13:35:01.007Z,13.41
2018-07-27T13:37:34.523Z,13.25
2018-07-27T13:40:06.733Z,12.33
2018-07-27T13:42:38.221Z,14.16
2018-07-27T13:45:09.237Z,13.74
2018-07-27T13:47:40.489Z,13.50
2018-07-27T13:50:11.939Z,13.17
2018-07-27T13:52:43.790Z,13.91
2018-07-27T13:55:15.417Z,14.05
2018-07-27T13:57:46.253Z,13.96
2018-07-27T14:00:16.944Z,14.16
2018-07-27T14:02:47.602Z,13.89
2018-07-27T14:05:18.786Z,13.74
2018-07-27T14:07:49.529Z,14.08
2018-07-27T14:10:20.222Z,13.74
2018-07-27T14:12:52.155Z,13.97
2018-07-27T14:15:24.367Z,14.13
2018-07-27T14:17:57.018Z,14.22
2018-07-27T14:20:27.894Z,14.67
2018-07-27T14:22:58.774Z,14.66
2018-07-27T14:25:30.715Z,16.30
2018-07-27T14:28:01.802Z,21.94
2018-07-27T14:30:33.771Z,23.38
2018-07-27T14:33:04.700Z,21.12
2018-07-27T14:35:36.458Z,20.81
2018-07-27T14:38:08.135Z,21.13
2018-07-27T14:40:38.740Z,21.34
2018-07-27T14:43:09.870Z,22.14
2018-07-27T14:45:41.510Z,21.54
2018-07-27T14:48:14.392Z,20.28
2018-07-27T14:50:45.363Z,21.42
2018-07-27T14:53:16.077Z,22.86
2018-07-27T14:55:47.143Z,24.16
2018-07-27T14:58:18.660Z,24.37
2018-07-27T15:00:49.171Z,24.81
2018-07-27T15:03:19.990Z,24.96
2018-07-27T15:05:51.272Z,24.95
2018-07-27T15:08:23.202Z,24.35
2018-07-27T15:10:54.559Z,24.34
2018-07-27T15:13:26.875Z,23.38
2018-07-27T15:15:58.051Z,23.57
2018-07-27T15:18:29.245Z,23.71
2018-07-27T15:21:01.576Z,24.60
2018-07-27T15:23:33.467Z,24.36
2018-07-27T15:26:06.106Z,25.72
2018-07-27T15:28:37.146Z,26.62
2018-07-27T15:31:08.151Z,25.30
2018-07-27T15:33:38.806Z,24.88
2018-07-27T15:36:09.348Z,24.46
2018-07-27T15:38:40.303Z,26.08
2018-07-27T15:41:11.528Z,26.20
2018-07-27T15:43:43.401Z,26.12
2018-07-27T15:46:15.359Z,25.79
2018-07-27T15:48:46.521Z,24.92
2018-07-27T15:51:17.217Z,25.39
2018-07-27T15:53:50.922Z,25.73
2018-07-27T15:56:22.311Z,25.93
2018-07-27T15:58:53.694Z,27.50
2018-07-27T16:01:24.819Z,28.74
2018-07-27T16:03:55.758Z,29.45
2018-07-27T16:06:26.510Z,31.40
2018-07-27T16:08:58.123Z,32.46
2018-07-27T16:11:28.756Z,33.18
2018-07-27T16:13:59.596Z,33.76
2018-07-27T16:16:31.003Z,33.97
2018-07-27T16:19:03.204Z,34.54
2018-07-27T16:21:34.782Z,34.82
2018-07-27T16:24:05.588Z,35.16
2018-07-27T16:26:36.239Z,35.88
2018-07-27T16:29:06.897Z,36.22
2018-07-27T16:31:37.731Z,36.86
2018-07-27T16:34:08.775Z,36.59
2018-07-27T16:36:40.095Z,41.43
2018-07-27T16:39:11.936Z,44.77
2018-07-27T16:41:42.774Z,52.52
2018-07-27T16:44:13.573Z,60.42
2018-07-27T16:46:44.371Z,71.84
2018-07-27T16:49:15.280Z,68.32
2018-07-27T16:51:46.720Z,69.31
2018-07-27T16:54:18.462Z,73.18
2018-07-27T16:56:50.206Z,71.50
2018-07-27T16:59:20.900Z,75.60
2018-07-27T17:01:53.412Z,76.89
2018-07-27T17:04:24.557Z,78.77
2018-07-27T17:06:58.908Z,75.61
2018-07-27T17:09:30.865Z,70.17
2018-07-27T17:12:03.204Z,70.46
2018-07-27T17:14:35.636Z,73.48
2018-07-27T17:17:06.900Z,73.98
2018-07-27T17:19:37.788Z,72.98
2018-07-27T17:22:08.810Z,73.73
2018-07-27T17:24:39.685Z,74.40
2018-07-27T17:27:11.773Z,71.84
2018-07-27T17:29:43.874Z,71.15
2018-07-27T17:32:15.639Z,69.29
2018-07-27T17:34:46.329Z,67.29
2018-07-27T17:37:17.275Z,61.71
2018-07-27T17:39:49.189Z,62.81
2018-07-27T17:42:19.802Z,62.24
2018-07-27T17:44:52.767Z,60.68
2018-07-27T17:47:25.963Z,60.37
2018-07-27T17:49:57.593Z,62.72
2018-07-27T17:52:29.130Z,61.01
2018-07-27T17:55:00.387Z,61.01
2018-07-27T17:57:32.559Z,65.77
2018-07-27T18:00:03.533Z,65.60
2018-07-27T18:02:35.728Z,67.87
2018-07-27T18:05:06.904Z,69.15
2018-07-27T18:07:37.654Z,69.27
2018-07-27T18:10:08.851Z,71.97
2018-07-27T18:12:39.974Z,69.88
2018-07-27T18:15:12.265Z,71.27
2018-07-27T18:17:43.398Z,72.66
2018-07-27T18:20:15.275Z,72.14
2018-07-27T18:22:48.869Z,71.88
2018-07-27T18:25:20.524Z,72.04
2018-07-27T18:27:52.655Z,73.09
2018-07-27T18:30:23.959Z,74.81
2018-07-27T18:32:54.515Z,75.38
2018-07-27T18:35:25.829Z,75.47
2018-07-27T18:37:58.692Z,75.36
2018-07-27T18:40:29.563Z,75.47
2018-07-27T18:43:01.267Z,73.92
2018-07-27T18:45:34.743Z,74.96
2018-07-27T18:48:05.546Z,75.35
2018-07-27T18:50:37.107Z,76.25
2018-07-27T18:53:09.446Z,77.16
2018-07-27T18:55:41.069Z,76.01
2018-07-27T18:58:12.034Z,76.27
2018-07-27T19:00:44.099Z,76.00
2018-07-27T19:03:15.921Z,75.64
2018-07-27T19:05:47.018Z,75.17
2018-07-27T19:08:18.591Z,74.76
2018-07-27T19:10:51.315Z,74.01
2018-07-27T19:13:22.263Z,74.83
2018-07-27T19:15:53.954Z,74.37
2018-07-27T19:18:25.352Z,74.17
2018-07-27T19:20:56.164Z,74.23
2018-07-27T19:23:27.195Z,74.06
2018-07-27T19:25:57.904Z,74.91
2018-07-27T19:28:29.748Z,75.52
2018-07-27T19:31:01.626Z,75.41
2018-07-27T19:33:33.720Z,76.15
2018-07-27T19:36:06.143Z,74.93
2018-07-27T19:38:38.388Z,75.17
2018-07-27T19:41:09.302Z,74.37
2018-07-27T19:43:40.915Z,74.25
2018-07-27T19:46:11.807Z,73.87
2018-07-27T19:48:42.903Z,73.61
2018-07-27T19:51:13.341Z,73.25
2018-07-27T19:53:44.205Z,73.90
2018-07-27T19:56:14.907Z,75.80
2018-07-27T19:58:47.946Z,77.20
2018-07-27T20:01:20.606Z,76.72
2018-07-27T20:03:51.738Z,77.38
2018-07-27T20:06:22.521Z,77.32
2018-07-27T20:08:53.307Z,75.07
2018-07-27T20:11:24.669Z,73.91
2018-07-27T20:13:55.633Z,73.33
2018-07-27T20:16:27.068Z,73.94
2018-07-27T20:19:00.872Z,74.06
2018-07-27T20:21:31.725Z,74.70
2018-07-27T20:24:02.394Z,75.63
2018-07-27T20:26:33.135Z,76.54
2018-07-27T20:29:04.212Z,77.91
2018-07-27T20:31:35.822Z,76.78
2018-07-27T20:34:07.054Z,75.62
2018-07-27T20:36:39.872Z,75.38
2018-07-27T20:39:14.514Z,75.22
2018-07-27T20:41:46.534Z,75.21
2018-07-27T20:44:17.935Z,75.60
2018-07-27T20:46:49.169Z,76.31
2018-07-27T20:49:20.550Z,76.52
2018-07-27T20:51:51.383Z,75.95
2018-07-27T20:54:22.160Z,78.20
2018-07-27T20:56:52.862Z,79.27
2018-07-27T20:59:23.598Z,80.15
2018-07-27T21:01:54.647Z,80.69
2018-07-27T21:04:25.282Z,79.76
2018-07-27T21:06:56.566Z,80.00
2018-07-27T21:09:27.639Z,79.09
2018-07-27T21:11:58.416Z,79.14
2018-07-27T21:14:29.369Z,77.11
2018-07-27T21:17:01.060Z,76.11
2018-07-27T21:19:31.842Z,76.94
2018-07-27T21:22:02.827Z,77.16
2018-07-27T21:24:35.879Z,76.98
2018-07-27T21:27:06.634Z,76.92
2018-07-27T21:29:37.340Z,77.97
2018-07-27T21:32:08.733Z,78.37
2018-07-27T21:34:39.826Z,79.15
2018-07-27T21:37:11.615Z,78.36
2018-07-27T21:39:43.972Z,79.22
2018-07-27T21:42:15.116Z,79.00
2018-07-27T21:44:45.991Z,78.63
2018-07-27T21:47:16.800Z,78.57
2018-07-27T21:49:47.820Z,77.99
2018-07-27T21:52:18.510Z,78.61
2018-07-27T21:54:49.927Z,78.50
2018-07-27T21:57:21.763Z,78.74
2018-07-27T21:59:52.739Z,78.92
2018-07-27T22:02:23.618Z,79.21
2018-07-27T22:04:54.519Z,80.89
2018-07-27T22:07:25.809Z,80.75
2018-07-27T22:09:56.687Z,80.24
2018-07-27T22:12:27.698Z,80.73
2018-07-27T22:14:58.754Z,81.59
2018-07-27T22:17:29.440Z,81.81
2018-07-27T22:20:00.453Z,81.30
2018-07-27T22:22:32.164Z,79.94
2018-07-27T22:25:03.642Z,79.71
2018-07-27T22:27:34.486Z,79.82
2018-07-27T22:30:06.684Z,78.62
2018-07-27T22:32:37.328Z,79.22
2018-07-27T22:35:08.413Z,78.89
2018-07-27T22:37:40.604Z,79.17
2018-07-27T22:40:12.018Z,79.48
2018-07-27T22:42:42.685Z,79.86
2018-07-27T22:45:13.333Z,80.12
2018-07-27T22:47:43.874Z,80.90
2018-07-27T22:50:15.347Z,80.83
2018-07-27T22:52:46.435Z,81.64
2018-07-27T22:55:16.976Z,81.89
2018-07-27T22:57:47.975Z,82.38
2018-07-27T23:00:18.858Z,82.51
2018-07-27T23:02:49.298Z,82.28
2018-07-27T23:05:20.037Z,80.61
2018-07-27T23:07:51.892Z,80.64
2018-07-27T23:10:22.705Z,81.23
2018-07-27T23:12:53.423Z,80.85
2018-07-27T23:15:24.682Z,80.70
2018-07-27T23:17:55.501Z,80.96
2018-07-27T23:20:26.029Z,81.30
2018-07-27T23:22:56.483Z,81.11
2018-07-27T23:25:27.503Z,81.03
2018-07-27T23:27:58.145Z,81.25
2018-07-27T23:30:28.703Z,81.01
2018-07-27T23:32:59.933Z,81.17
2018-07-27T23:35:30.425Z,81.12
2018-07-27T23:38:01.967Z,81.47
2018-07-27T23:40:32.735Z,81.50
2018-07-27T23:43:03.368Z,81.94
2018-07-27T23:45:34.345Z,82.58
2018-07-27T23:48:05.590Z,82.96
2018-07-27T23:50:36.749Z,83.99
2018-07-27T23:53:09.140Z,83.86
2018-07-27T23:55:39.779Z,83.92
2018-07-27T23:58:10.478Z,83.27
